Time;durP1;ratioP1;P1;durP2;ratioP2;P2;SDS_P1;SDS_P2;PMS_P1;PMS_P2;Temp;Humidity;BMP_temperature;BMP_pressure;BME280_temperature;BME280_humidity;BME280_pressure;Samples;Min_cycle;Max_cycle;Signal;HPM_P1;HPM_P2
2023/08/28 00:00:14;;;;;;;2.30;2.10;;;;;;;;;;4894544;29;20220;-82
2023/08/28 00:02:41;;;;;;;2.15;2.05;;;;;;;;;;4895534;29;20233;-81
2023/08/28 00:05:09;;;;;;;2.05;1.95;;;;;;;;;;4894190;29;20196;-83
2023/08/28 00:07:36;;;;;;;1.83;1.73;;;;;;;;;;4894038;29;20710;-82
2023/08/28 00:10:03;;;;;;;2.45;2.33;;;;;;;;;;4894634;29;20773;-81
2023/08/28 00:12:34;;;;;;;2.17;1.98;;;;;;;;;;4894565;29;20235;-82
2023/08/28 00:15:00;;;;;;;2.00;1.90;;;;;;;;;;4893838;29;20212;-82
2023/08/28 00:17:27;;;;;;;2.45;2.25;;;;;;;;;;4894659;29;20209;-83
2023/08/28 00:19:54;;;;;;;2.20;2.10;;;;;;;;;;4892705;29;20228;-82
2023/08/28 00:22:25;;;;;;;2.50;2.35;;;;;;;;;;4893214;29;20399;-82
2023/08/28 00:24:52;;;;;;;2.80;2.05;;;;;;;;;;4893968;29;20216;-82
2023/08/28 00:27:19;;;;;;;4.63;2.13;;;;;;;;;;4893862;29;20205;-82
2023/08/28 00:29:46;;;;;;;2.25;2.10;;;;;;;;;;4893799;29;20229;-84
2023/08/28 00:32:12;;;;;;;3.53;3.22;;;;;;;;;;4894430;29;20345;-83
2023/08/28 00:34:39;;;;;;;3.28;2.70;;;;;;;;;;4893308;29;20217;-83
2023/08/28 00:37:07;;;;;;;2.53;2.42;;;;;;;;;;4893961;29;20201;-82
2023/08/28 00:39:36;;;;;;;3.10;2.85;;;;;;;;;;4893655;29;20705;-82
2023/08/28 00:42:02;;;;;;;8.68;3.38;;;;;;;;;;4893131;29;20240;-81
2023/08/28 00:44:29;;;;;;;4.90;3.13;;;;;;;;;;4893908;29;20263;-82
2023/08/28 00:46:56;;;;;;;4.45;2.65;;;;;;;;;;4893814;29;20232;-83
2023/08/28 00:49:23;;;;;;;3.10;2.97;;;;;;;;;;4893054;29;20703;-82
2023/08/28 00:51:50;;;;;;;2.65;2.20;;;;;;;;;;4877817;29;20209;-83
2023/08/28 00:54:17;;;;;;;2.80;2.60;;;;;;;;;;4874705;29;20265;-82
2023/08/28 00:56:46;;;;;;;6.15;4.00;;;;;;;;;;4874841;29;20218;-82
2023/08/28 00:59:14;;;;;;;5.10;2.83;;;;;;;;;;4874339;29;20197;-84
2023/08/28 01:01:41;;;;;;;3.17;2.92;;;;;;;;;;4875473;29;20243;-82
2023/08/28 01:04:08;;;;;;;2.88;2.47;;;;;;;;;;4875098;29;20726;-82
2023/08/28 01:06:42;;;;;;;8.75;2.85;;;;;;;;;;4874061;29;20315;-83
2023/08/28 01:09:13;;;;;;;2.88;2.58;;;;;;;;;;4874971;29;20319;-82
2023/08/28 01:11:45;;;;;;;2.70;2.50;;;;;;;;;;4875383;29;20242;-83
2023/08/28 01:14:16;;;;;;;3.03;2.83;;;;;;;;;;4874070;29;20328;-82
2023/08/28 01:16:44;;;;;;;2.75;2.55;;;;;;;;;;4875144;29;20202;-82
2023/08/28 01:19:19;;;;;;;2.70;2.50;;;;;;;;;;4874927;29;20651;-83
2023/08/28 01:21:49;;;;;;;2.97;2.70;;;;;;;;;;4874621;29;20243;-83
2023/08/28 01:24:19;;;;;;;2.97;2.15;;;;;;;;;;4875005;29;20732;-83
2023/08/28 01:26:48;;;;;;;2.35;2.15;;;;;;;;;;4874741;29;20273;-82
2023/08/28 01:29:15;;;;;;;2.58;2.38;;;;;;;;;;4874154;29;20281;-82
2023/08/28 01:31:42;;;;;;;2.80;2.60;;;;;;;;;;4874550;29;20456;-82
2023/08/28 01:34:09;;;;;;;2.10;2.00;;;;;;;;;;4874761;29;20217;-83
2023/08/28 01:36:40;;;;;;;2.47;2.30;;;;;;;;;;4874524;29;20700;-83
2023/08/28 01:39:11;;;;;;;2.72;2.53;;;;;;;;;;4874452;29;20243;-82
2023/08/28 01:41:39;;;;;;;3.53;3.03;;;;;;;;;;4874188;29;20243;-82
2023/08/28 01:44:09;;;;;;;2.67;2.58;;;;;;;;;;4874196;29;20219;-82
2023/08/28 01:46:36;;;;;;;3.75;2.70;;;;;;;;;;4875152;29;20203;-81
2023/08/28 01:49:03;;;;;;;2.97;2.53;;;;;;;;;;4873845;29;20272;-81
2023/08/28 01:51:30;;;;;;;3.10;2.85;;;;;;;;;;4875845;29;20643;-82
2023/08/28 01:53:57;;;;;;;2.92;2.72;;;;;;;;;;4878336;29;20678;-83
2023/08/28 01:56:24;;;;;;;3.08;2.88;;;;;;;;;;4877079;29;20212;-81
2023/08/28 01:58:53;;;;;;;3.60;2.80;;;;;;;;;;4879248;29;20211;-82
2023/08/28 02:01:22;;;;;;;2.30;2.10;;;;;;;;;;4878493;29;20208;-82
2023/08/28 02:03:49;;;;;;;2.60;2.40;;;;;;;;;;4877618;29;20219;-82
2023/08/28 02:06:18;;;;;;;6.82;3.15;;;;;;;;;;4880124;29;20208;-82
2023/08/28 02:08:45;;;;;;;3.58;2.83;;;;;;;;;;4880918;29;20233;-82
2023/08/28 02:11:12;;;;;;;2.50;2.40;;;;;;;;;;4878385;29;20292;-82
2023/08/28 02:13:40;;;;;;;2.35;2.25;;;;;;;;;;4884740;29;20662;-83
2023/08/28 02:16:07;;;;;;;2.90;2.70;;;;;;;;;;4880203;29;20207;-81
2023/08/28 02:18:36;;;;;;;2.38;2.28;;;;;;;;;;4883748;29;20203;-81
2023/08/28 02:21:03;;;;;;;2.35;2.25;;;;;;;;;;4885625;29;20290;-81
2023/08/28 02:23:30;;;;;;;2.30;2.20;;;;;;;;;;4878544;29;20252;-81
2023/08/28 02:25:56;;;;;;;2.58;2.28;;;;;;;;;;4878689;29;20291;-83
2023/08/28 02:28:25;;;;;;;2.58;2.22;;;;;;;;;;4877824;29;20205;-82
2023/08/28 02:30:52;;;;;;;3.13;2.42;;;;;;;;;;4877847;29;20327;-82
2023/08/28 02:33:19;;;;;;;3.20;2.60;;;;;;;;;;4877395;29;20213;-82
2023/08/28 02:35:47;;;;;;;2.88;2.67;;;;;;;;;;4877891;29;20261;-81
2023/08/28 02:38:14;;;;;;;2.25;2.15;;;;;;;;;;4877832;29;20316;-82
2023/08/28 02:40:41;;;;;;;2.25;2.05;;;;;;;;;;4878212;29;20208;-82
2023/08/28 02:43:09;;;;;;;3.53;2.95;;;;;;;;;;4877673;29;20239;-82
2023/08/28 02:45:36;;;;;;;2.50;2.15;;;;;;;;;;4877073;29;20650;-82
2023/08/28 02:48:04;;;;;;;2.78;2.55;;;;;;;;;;4860412;29;20220;-83
2023/08/28 02:50:31;;;;;;;2.90;2.70;;;;;;;;;;4878441;29;20254;-82
2023/08/28 02:53:00;;;;;;;2.72;2.20;;;;;;;;;;4880334;29;20275;-81
2023/08/28 02:55:27;;;;;;;2.72;2.50;;;;;;;;;;4878240;29;20233;-80
2023/08/28 02:57:55;;;;;;;2.65;2.20;;;;;;;;;;4876599;29;20212;-81
2023/08/28 03:00:22;;;;;;;2.35;2.22;;;;;;;;;;4877941;29;20584;-82
2023/08/28 03:02:50;;;;;;;5.30;2.92;;;;;;;;;;4876110;29;20230;-81
2023/08/28 03:05:17;;;;;;;4.22;2.47;;;;;;;;;;4877190;29;20212;-82
2023/08/28 03:07:45;;;;;;;3.42;2.70;;;;;;;;;;4877245;29;20218;-83
2023/08/28 03:10:13;;;;;;;3.58;3.25;;;;;;;;;;4876960;29;20236;-82
2023/08/28 03:12:40;;;;;;;3.17;2.97;;;;;;;;;;4877254;29;20341;-82
2023/08/28 03:15:07;;;;;;;2.55;2.35;;;;;;;;;;4877545;29;20264;-82
2023/08/28 03:17:35;;;;;;;3.95;2.78;;;;;;;;;;4876719;29;20226;-82
2023/08/28 03:20:04;;;;;;;2.85;2.72;;;;;;;;;;4877084;29;20273;-81
2023/08/28 03:22:32;;;;;;;9.70;2.75;;;;;;;;;;4876756;29;20262;-81
2023/08/28 03:25:00;;;;;;;2.60;2.33;;;;;;;;;;4876444;29;20209;-81
2023/08/28 03:27:30;;;;;;;2.30;2.10;;;;;;;;;;4859449;29;20339;-81
2023/08/28 03:29:57;;;;;;;2.10;2.00;;;;;;;;;;4876346;29;20239;-81
2023/08/28 03:32:24;;;;;;;2.50;2.30;;;;;;;;;;4876001;29;20290;-81
2023/08/28 03:34:52;;;;;;;3.78;2.50;;;;;;;;;;4876336;29;20344;-80
2023/08/28 03:37:19;;;;;;;6.35;2.85;;;;;;;;;;4877311;29;20664;-82
2023/08/28 03:39:48;;;;;;;2.88;2.58;;;;;;;;;;4876219;29;20685;-81
2023/08/28 03:42:16;;;;;;;2.33;2.22;;;;;;;;;;4875561;29;20238;-81
2023/08/28 03:44:45;;;;;;;3.25;2.95;;;;;;;;;;4876514;29;20237;-82
2023/08/28 03:47:13;;;;;;;3.10;2.67;;;;;;;;;;4875814;29;20212;-81
2023/08/28 03:49:41;;;;;;;2.88;2.67;;;;;;;;;;4876743;29;20687;-81
2023/08/28 03:52:09;;;;;;;2.67;2.47;;;;;;;;;;4876036;29;20235;-81
2023/08/28 03:54:37;;;;;;;2.75;2.55;;;;;;;;;;4875582;29;20218;-82
2023/08/28 03:57:04;;;;;;;3.72;3.15;;;;;;;;;;4876258;29;20226;-81
2023/08/28 03:59:32;;;;;;;4.47;2.80;;;;;;;;;;4875528;29;20924;-81
2023/08/28 04:02:02;;;;;;;2.80;2.55;;;;;;;;;;4874611;29;20653;-81
2023/08/28 04:04:29;;;;;;;2.42;2.28;;;;;;;;;;4876048;29;20207;-81
2023/08/28 04:07:01;;;;;;;2.50;2.30;;;;;;;;;;4877113;29;20217;-82
2023/08/28 04:09:31;;;;;;;2.70;2.60;;;;;;;;;;4875687;29;20232;-82
2023/08/28 04:12:07;;;;;;;3.42;2.60;;;;;;;;;;4876156;29;20292;-83
2023/08/28 04:14:34;;;;;;;3.70;3.03;;;;;;;;;;4875061;29;20278;-82
2023/08/28 04:17:04;;;;;;;3.05;2.58;;;;;;;;;;4875777;29;20204;-82
2023/08/28 04:19:32;;;;;;;2.50;2.28;;;;;;;;;;4875906;29;20284;-81
2023/08/28 04:21:59;;;;;;;5.72;3.08;;;;;;;;;;4875900;29;20214;-82
2023/08/28 04:24:27;;;;;;;4.03;2.75;;;;;;;;;;4876026;29;20209;-82
2023/08/28 04:26:55;;;;;;;5.40;2.80;;;;;;;;;;4876211;29;20227;-81
2023/08/28 04:29:23;;;;;;;3.83;3.50;;;;;;;;;;4875242;29;20305;-82
2023/08/28 04:31:50;;;;;;;3.25;3.08;;;;;;;;;;4875614;29;20567;-81
2023/08/28 04:34:20;;;;;;;4.65;3.53;;;;;;;;;;4875252;29;20593;-83
2023/08/28 04:36:48;;;;;;;3.42;3.13;;;;;;;;;;4875284;29;20257;-81
2023/08/28 04:39:15;;;;;;;4.22;3.55;;;;;;;;;;4875101;29;20265;-83
2023/08/28 04:41:44;;;;;;;3.35;3.10;;;;;;;;;;4875094;29;20671;-81
2023/08/28 04:44:11;;;;;;;3.17;3.05;;;;;;;;;;4874882;29;20233;-81
2023/08/28 04:46:39;;;;;;;5.68;2.97;;;;;;;;;;4874660;29;20311;-82
2023/08/28 04:49:06;;;;;;;3.63;3.42;;;;;;;;;;4874438;29;20232;-83
2023/08/28 04:51:36;;;;;;;3.85;3.58;;;;;;;;;;4875547;29;20217;-82
2023/08/28 04:54:04;;;;;;;3.15;2.88;;;;;;;;;;4874824;29;20293;-82
2023/08/28 04:56:32;;;;;;;7.00;3.55;;;;;;;;;;4874191;29;20293;-82
2023/08/28 04:59:01;;;;;;;7.32;3.60;;;;;;;;;;4875510;29;20289;-83
2023/08/28 05:01:29;;;;;;;6.32;3.78;;;;;;;;;;4874524;29;20208;-82
2023/08/28 05:03:56;;;;;;;3.35;3.13;;;;;;;;;;4874828;29;20320;-83
2023/08/28 05:06:24;;;;;;;10.55;3.70;;;;;;;;;;4875036;29;20209;-81
2023/08/28 05:08:53;;;;;;;5.68;3.45;;;;;;;;;;4873678;29;20339;-80
2023/08/28 05:11:20;;;;;;;3.20;3.00;;;;;;;;;;4878376;29;20224;-82
2023/08/28 05:13:47;;;;;;;3.78;3.55;;;;;;;;;;4874246;29;20236;-81
2023/08/28 05:16:14;;;;;;;3.72;3.40;;;;;;;;;;4873786;29;20715;-83
2023/08/28 05:18:40;;;;;;;3.33;3.10;;;;;;;;;;4874917;29;20208;-82
2023/08/28 05:21:07;;;;;;;3.60;3.30;;;;;;;;;;4874445;29;20213;-83
2023/08/28 05:23:34;;;;;;;4.03;3.33;;;;;;;;;;4873680;29;20268;-81
2023/08/28 05:26:03;;;;;;;3.42;3.10;;;;;;;;;;4874323;29;20232;-83
2023/08/28 05:28:31;;;;;;;4.63;3.15;;;;;;;;;;4874123;29;20257;-82
2023/08/28 05:30:58;;;;;;;7.78;3.38;;;;;;;;;;4885064;29;20232;-82
2023/08/28 05:33:25;;;;;;;3.45;3.15;;;;;;;;;;4874842;29;20578;-82
2023/08/28 05:35:52;;;;;;;5.25;3.25;;;;;;;;;;4875849;29;20209;-82
2023/08/28 05:38:22;;;;;;;5.32;3.47;;;;;;;;;;4873802;29;20296;-83
2023/08/28 05:40:51;;;;;;;3.50;3.05;;;;;;;;;;4874218;29;20371;-82
2023/08/28 05:43:21;;;;;;;3.63;3.30;;;;;;;;;;4875100;29;20489;-82
2023/08/28 05:45:48;;;;;;;4.22;3.38;;;;;;;;;;4873950;29;20215;-83
2023/08/28 05:48:16;;;;;;;4.55;2.95;;;;;;;;;;4873820;29;20209;-82
2023/08/28 05:50:45;;;;;;;3.35;3.15;;;;;;;;;;4874266;29;20247;-83
2023/08/28 05:53:12;;;;;;;3.97;3.00;;;;;;;;;;4873288;29;20209;-83
2023/08/28 05:55:39;;;;;;;2.92;2.72;;;;;;;;;;4873989;29;20213;-82
2023/08/28 05:58:06;;;;;;;3.47;3.15;;;;;;;;;;4874168;29;20208;-82
2023/08/28 06:00:35;;;;;;;3.55;3.28;;;;;;;;;;4874914;29;20213;-82
2023/08/28 06:03:02;;;;;;;4.00;3.70;;;;;;;;;;4891265;29;20721;-82
2023/08/28 06:05:29;;;;;;;4.18;3.88;;;;;;;;;;4894565;29;20240;-81
2023/08/28 06:07:56;;;;;;;3.75;3.45;;;;;;;;;;4892889;29;20294;-81
2023/08/28 06:10:23;;;;;;;3.65;3.05;;;;;;;;;;4893434;29;20228;-81
2023/08/28 06:12:50;;;;;;;5.22;3.22;;;;;;;;;;4889830;29;20257;-81
2023/08/28 06:15:18;;;;;;;3.50;3.22;;;;;;;;;;4873553;29;20217;-82
2023/08/28 06:17:48;;;;;;;3.28;3.08;;;;;;;;;;4875085;29;20323;-83
2023/08/28 06:20:14;;;;;;;3.58;3.38;;;;;;;;;;4875684;29;20208;-82
2023/08/28 06:22:42;;;;;;;3.22;3.00;;;;;;;;;;4882897;29;20219;-81
2023/08/28 06:25:10;;;;;;;3.60;3.28;;;;;;;;;;4874791;29;20205;-81
2023/08/28 06:27:37;;;;;;;3.58;3.38;;;;;;;;;;4875022;29;20217;-81
2023/08/28 06:30:04;;;;;;;3.42;3.22;;;;;;;;;;4875095;29;20205;-82
2023/08/28 06:32:34;;;;;;;3.50;3.20;;;;;;;;;;4873032;29;20243;-82
2023/08/28 06:35:04;;;;;;;5.05;3.85;;;;;;;;;;4873518;29;20299;-81
2023/08/28 06:37:31;;;;;;;4.03;3.83;;;;;;;;;;4863780;29;20288;-82
2023/08/28 06:39:58;;;;;;;3.80;3.47;;;;;;;;;;4880634;29;20212;-81
2023/08/28 06:42:25;;;;;;;4.28;3.75;;;;;;;;;;4885712;29;20312;-82
2023/08/28 06:44:52;;;;;;;3.65;3.38;;;;;;;;;;4877355;29;20736;-82
2023/08/28 06:47:19;;;;;;;3.78;3.53;;;;;;;;;;4877460;29;20220;-81
2023/08/28 06:49:47;;;;;;;3.85;3.55;;;;;;;;;;4877411;29;20196;-82
2023/08/28 06:52:15;;;;;;;3.40;2.88;;;;;;;;;;4877203;29;20291;-82
2023/08/28 06:54:45;;;;;;;3.42;3.22;;;;;;;;;;4876470;29;20205;-82
2023/08/28 06:57:16;;;;;;;3.80;3.50;;;;;;;;;;4876245;29;20311;-82
2023/08/28 06:59:53;;;;;;;3.70;3.42;;;;;;;;;;4887326;29;20217;-82
2023/08/28 07:02:53;;;;;;;6.63;4.35;;;;;;;;;;4895055;29;20212;-81
2023/08/28 07:05:24;;;;;;;7.72;3.55;;;;;;;;;;4895396;29;20205;-82
2023/08/28 07:07:57;;;;;;;3.88;3.58;;;;;;;;;;4894894;29;20311;-81
2023/08/28 07:10:24;;;;;;;4.72;4.43;;;;;;;;;;4895770;29;20235;-81
2023/08/28 07:12:51;;;;;;;4.20;3.67;;;;;;;;;;4878447;29;20217;-82
2023/08/28 07:15:50;;;;;;;4.25;3.90;;;;;;;;;;4876712;29;20205;-81
2023/08/28 07:18:18;;;;;;;3.85;3.53;;;;;;;;;;4877327;29;20281;-81
2023/08/28 07:20:45;;;;;;;3.83;3.47;;;;;;;;;;4887106;29;20300;-82
2023/08/28 07:23:14;;;;;;;4.53;4.10;;;;;;;;;;4876140;29;20240;-82
2023/08/28 07:25:41;;;;;;;4.90;4.50;;;;;;;;;;4877023;29;20690;-83
2023/08/28 07:28:08;;;;;;;3.83;3.53;;;;;;;;;;4876032;29;20212;-81
2023/08/28 07:30:35;;;;;;;3.13;2.92;;;;;;;;;;4892477;29;20228;-81
2023/08/28 07:33:03;;;;;;;3.05;2.95;;;;;;;;;;4894930;29;20204;-86
2023/08/28 07:35:34;;;;;;;4.15;3.75;;;;;;;;;;4894601;29;20213;-83
2023/08/28 07:38:03;;;;;;;5.53;3.22;;;;;;;;;;4878860;29;20228;-83
2023/08/28 07:40:32;;;;;;;3.95;3.75;;;;;;;;;;4876939;29;20595;-82
2023/08/28 07:42:59;;;;;;;3.45;3.30;;;;;;;;;;4876510;29;20682;-83
2023/08/28 07:45:26;;;;;;;3.30;3.10;;;;;;;;;;4876503;29;20228;-82
2023/08/28 07:47:53;;;;;;;3.97;3.20;;;;;;;;;;4876000;29;20691;-82
2023/08/28 07:50:20;;;;;;;6.85;3.85;;;;;;;;;;4875537;29;20209;-82
2023/08/28 07:52:47;;;;;;;3.88;3.58;;;;;;;;;;4876198;29;20296;-82
2023/08/28 07:55:14;;;;;;;6.55;4.05;;;;;;;;;;4876435;29;20293;-83
2023/08/28 07:57:42;;;;;;;4.18;3.88;;;;;;;;;;4875500;29;20240;-81
2023/08/28 08:00:13;;;;;;;3.63;3.35;;;;;;;;;;4876360;29;20256;-82
2023/08/28 08:02:41;;;;;;;3.83;3.53;;;;;;;;;;4876008;29;20212;-83
2023/08/28 08:05:10;;;;;;;2.90;2.75;;;;;;;;;;4875392;29;20235;-82
2023/08/28 08:07:38;;;;;;;3.60;3.20;;;;;;;;;;4876336;29;20224;-82
2023/08/28 08:10:06;;;;;;;4.13;3.33;;;;;;;;;;4876073;29;20276;-82
2023/08/28 08:12:34;;;;;;;4.07;3.72;;;;;;;;;;4875278;29;20296;-82
2023/08/28 08:15:04;;;;;;;3.20;3.00;;;;;;;;;;4876113;29;20363;-82
2023/08/28 08:17:32;;;;;;;3.53;3.38;;;;;;;;;;4875810;29;20212;-82
2023/08/28 08:19:59;;;;;;;4.38;4.07;;;;;;;;;;4874774;29;20209;-82
2023/08/28 08:22:26;;;;;;;3.42;3.22;;;;;;;;;;4875533;29;20774;-82
2023/08/28 08:24:53;;;;;;;3.63;3.33;;;;;;;;;;4875933;29;20232;-81
2023/08/28 08:27:20;;;;;;;10.10;3.45;;;;;;;;;;4875657;29;20606;-82
2023/08/28 08:29:48;;;;;;;3.70;3.35;;;;;;;;;;4875148;29;20213;-82
2023/08/28 08:32:16;;;;;;;3.65;2.92;;;;;;;;;;4875459;29;20312;-82
2023/08/28 08:34:43;;;;;;;3.65;2.95;;;;;;;;;;4875044;29;20244;-82
2023/08/28 08:37:10;;;;;;;2.88;2.67;;;;;;;;;;4875648;29;20212;-83
2023/08/28 08:39:37;;;;;;;3.13;3.00;;;;;;;;;;4876209;29;20628;-82
2023/08/28 08:42:04;;;;;;;2.92;2.83;;;;;;;;;;4875473;29;20228;-82
2023/08/28 08:44:33;;;;;;;4.30;3.40;;;;;;;;;;4858863;29;20260;-82
2023/08/28 08:47:03;;;;;;;5.53;3.58;;;;;;;;;;4876022;29;20205;-81
2023/08/28 08:49:32;;;;;;;5.28;3.58;;;;;;;;;;4875242;29;20580;-83
2023/08/28 08:52:01;;;;;;;3.60;3.50;;;;;;;;;;4876265;29;20803;-82
2023/08/28 08:54:30;;;;;;;3.75;2.90;;;;;;;;;;4875674;29;20272;-83
2023/08/28 08:57:00;;;;;;;4.20;3.58;;;;;;;;;;4874679;29;20232;-81
2023/08/28 08:59:28;;;;;;;4.32;3.88;;;;;;;;;;4875904;29;20232;-82
2023/08/28 09:01:59;;;;;;;3.10;3.00;;;;;;;;;;4875409;29;20197;-83
2023/08/28 09:04:26;;;;;;;3.65;3.30;;;;;;;;;;4874921;29;20292;-81
2023/08/28 09:06:55;;;;;;;6.38;3.67;;;;;;;;;;4875271;29;20300;-83
2023/08/28 09:09:23;;;;;;;4.45;3.50;;;;;;;;;;4874601;29;20258;-82
2023/08/28 09:11:50;;;;;;;3.65;3.35;;;;;;;;;;4875146;29;20205;-83
2023/08/28 09:14:17;;;;;;;3.15;3.03;;;;;;;;;;4875537;29;20220;-82
2023/08/28 09:16:43;;;;;;;5.65;3.08;;;;;;;;;;4875180;29;20589;-82
2023/08/28 09:19:12;;;;;;;3.80;2.95;;;;;;;;;;4873975;29;20694;-83
2023/08/28 09:21:39;;;;;;;3.53;3.30;;;;;;;;;;4875711;29;20324;-83
2023/08/28 09:24:10;;;;;;;3.45;3.17;;;;;;;;;;4874632;29;20232;-83
2023/08/28 09:26:38;;;;;;;4.13;3.72;;;;;;;;;;4875412;29;20284;-82
2023/08/28 09:29:07;;;;;;;5.22;3.67;;;;;;;;;;4878906;29;20273;-83
2023/08/28 09:31:36;;;;;;;3.35;3.05;;;;;;;;;;4877040;29;20684;-83
2023/08/28 09:34:04;;;;;;;2.63;2.53;;;;;;;;;;4874003;29;20208;-82
2023/08/28 09:36:33;;;;;;;6.75;3.10;;;;;;;;;;4872791;29;20253;-82
2023/08/28 09:39:03;;;;;;;3.97;2.67;;;;;;;;;;4873070;29;20300;-83
2023/08/28 09:41:41;;;;;;;5.28;3.10;;;;;;;;;;4873291;29;20216;-83
2023/08/28 09:44:09;;;;;;;3.90;3.60;;;;;;;;;;4873751;29;20239;-82
2023/08/28 09:46:36;;;;;;;3.03;2.88;;;;;;;;;;4874510;29;20292;-82
2023/08/28 09:49:03;;;;;;;2.88;2.60;;;;;;;;;;4874101;29;20227;-84
2023/08/28 09:51:38;;;;;;;3.22;3.00;;;;;;;;;;4872994;29;20205;-83
2023/08/28 09:54:06;;;;;;;3.35;3.03;;;;;;;;;;4875899;29;20208;-83
2023/08/28 09:56:33;;;;;;;3.60;3.30;;;;;;;;;;4875134;29;20205;-82
2023/08/28 09:59:04;;;;;;;5.57;3.42;;;;;;;;;;4875828;29;20694;-83
2023/08/28 10:01:31;;;;;;;4.93;3.55;;;;;;;;;;4875118;29;20301;-81
2023/08/28 10:03:59;;;;;;;3.83;2.70;;;;;;;;;;4874507;29;20233;-82
2023/08/28 10:06:27;;;;;;;3.22;2.92;;;;;;;;;;4874775;29;20232;-82
2023/08/28 10:08:55;;;;;;;3.92;2.65;;;;;;;;;;4875380;29;20227;-83
2023/08/28 10:11:25;;;;;;;2.65;2.45;;;;;;;;;;4874644;29;20240;-83
2023/08/28 10:13:53;;;;;;;2.50;2.40;;;;;;;;;;4878536;29;20269;-83
2023/08/28 10:16:23;;;;;;;2.60;2.45;;;;;;;;;;4878908;29;20212;-83
2023/08/28 10:18:52;;;;;;;2.90;2.70;;;;;;;;;;4878255;29;20239;-83
2023/08/28 10:21:21;;;;;;;2.55;2.35;;;;;;;;;;4878833;29;20269;-83
2023/08/28 10:23:49;;;;;;;2.65;2.40;;;;;;;;;;4881308;29;20261;-82
2023/08/28 10:26:17;;;;;;;2.95;2.75;;;;;;;;;;4880661;29;20762;-83
2023/08/28 10:28:46;;;;;;;3.45;2.80;;;;;;;;;;4878678;29;20281;-83
2023/08/28 10:31:13;;;;;;;3.03;2.83;;;;;;;;;;4877949;29;20244;-83
2023/08/28 10:33:42;;;;;;;2.97;2.78;;;;;;;;;;4878119;29;20281;-83
2023/08/28 10:36:10;;;;;;;3.25;3.05;;;;;;;;;;4877518;29;20205;-84
2023/08/28 10:38:36;;;;;;;5.00;2.88;;;;;;;;;;4877837;29;20201;-82
2023/08/28 10:41:05;;;;;;;2.90;2.70;;;;;;;;;;4877436;29;20201;-84
2023/08/28 10:43:33;;;;;;;3.10;2.95;;;;;;;;;;4877702;29;20209;-82
2023/08/28 10:46:03;;;;;;;2.88;2.78;;;;;;;;;;4878439;29;20245;-82
2023/08/28 10:48:29;;;;;;;3.45;3.15;;;;;;;;;;4878014;29;20240;-83
2023/08/28 10:50:58;;;;;;;2.70;2.60;;;;;;;;;;4878138;29;20284;-83
2023/08/28 10:53:26;;;;;;;4.00;2.70;;;;;;;;;;4877965;29;20212;-83
2023/08/28 10:55:55;;;;;;;4.03;2.80;;;;;;;;;;4877085;29;20232;-82
2023/08/28 10:58:24;;;;;;;3.97;2.38;;;;;;;;;;4877710;29;20691;-82
2023/08/28 11:01:11;;;;;;;3.10;2.50;;;;;;;;;;4877614;29;20204;-82
2023/08/28 11:03:53;;;;;;;4.32;2.53;;;;;;;;;;4876566;29;20291;-82
2023/08/28 11:06:39;;;;;;;3.30;3.20;;;;;;;;;;4878526;29;20232;-82
2023/08/28 11:09:24;;;;;;;3.35;2.90;;;;;;;;;;4877673;29;20548;-83
2023/08/28 11:11:52;;;;;;;2.72;2.60;;;;;;;;;;4877231;29;20208;-83
2023/08/28 11:14:21;;;;;;;2.92;2.70;;;;;;;;;;4877221;29;20304;-82
2023/08/28 11:16:48;;;;;;;4.47;3.13;;;;;;;;;;4880769;29;20643;-83
2023/08/28 11:19:15;;;;;;;3.60;2.92;;;;;;;;;;4885914;29;20261;-82
2023/08/28 11:21:43;;;;;;;5.95;2.90;;;;;;;;;;4886764;29;20205;-82
2023/08/28 11:24:17;;;;;;;2.50;2.40;;;;;;;;;;4876744;29;20289;-82
2023/08/28 11:26:44;;;;;;;3.97;2.75;;;;;;;;;;4877555;29;20562;-82
2023/08/28 11:29:25;;;;;;;2.78;2.58;;;;;;;;;;4877020;29;20728;-82
2023/08/28 11:31:52;;;;;;;2.35;2.25;;;;;;;;;;4876784;29;20274;-82
2023/08/28 11:34:19;;;;;;;2.90;2.20;;;;;;;;;;4876551;29;20312;-82
2023/08/28 11:36:47;;;;;;;2.50;2.40;;;;;;;;;;4876205;29;20209;-82
2023/08/28 11:39:22;;;;;;;2.08;2.00;;;;;;;;;;4876376;29;20201;-82
2023/08/28 11:41:49;;;;;;;1.98;1.88;;;;;;;;;;4877538;29;20205;-83
2023/08/28 11:44:16;;;;;;;2.35;2.25;;;;;;;;;;4876070;29;20212;-83
2023/08/28 11:46:43;;;;;;;2.80;2.60;;;;;;;;;;4876386;29;20380;-83
2023/08/28 11:49:10;;;;;;;2.35;2.25;;;;;;;;;;4876683;29;20277;-82
2023/08/28 11:51:38;;;;;;;2.35;2.25;;;;;;;;;;4876422;29;20209;-83
2023/08/28 11:54:07;;;;;;;1.80;1.70;;;;;;;;;;4876280;29;20209;-82
2023/08/28 11:56:36;;;;;;;2.05;1.90;;;;;;;;;;4876616;29;20206;-83
2023/08/28 11:59:04;;;;;;;1.75;1.75;;;;;;;;;;4876597;29;20262;-81
2023/08/28 12:01:30;;;;;;;2.08;1.98;;;;;;;;;;4877027;29;20232;-83
2023/08/28 12:04:00;;;;;;;2.80;2.63;;;;;;;;;;4875944;29;20223;-82
2023/08/28 12:06:29;;;;;;;3.70;2.30;;;;;;;;;;4876015;29;20361;-82
2023/08/28 12:08:56;;;;;;;2.55;2.03;;;;;;;;;;4876046;29;20312;-82
2023/08/28 12:11:27;;;;;;;2.05;1.95;;;;;;;;;;4876048;29;20213;-83
2023/08/28 12:13:55;;;;;;;2.28;2.17;;;;;;;;;;4877022;29;20197;-82
2023/08/28 12:16:24;;;;;;;1.83;1.73;;;;;;;;;;4876571;29;20231;-85
2023/08/28 12:18:52;;;;;;;1.70;1.70;;;;;;;;;;4875983;29;20297;-83
2023/08/28 12:21:35;;;;;;;2.30;2.20;;;;;;;;;;4873382;29;20289;-83
2023/08/28 12:24:02;;;;;;;1.58;1.58;;;;;;;;;;4874968;29;20241;-82
2023/08/28 12:26:31;;;;;;;2.17;1.80;;;;;;;;;;4879909;29;20267;-82
2023/08/28 12:28:58;;;;;;;1.98;1.80;;;;;;;;;;4872787;29;20802;-81
2023/08/28 12:31:26;;;;;;;1.90;1.80;;;;;;;;;;4886197;29;20275;-83
2023/08/28 12:33:53;;;;;;;2.83;1.52;;;;;;;;;;4885022;29;20722;-82
2023/08/28 12:36:20;;;;;;;1.25;1.25;;;;;;;;;;4874496;29;20232;-83
2023/08/28 12:38:48;;;;;;;1.88;1.50;;;;;;;;;;4874561;29;20409;-83
2023/08/28 12:41:16;;;;;;;1.60;1.50;;;;;;;;;;4874916;29;20229;-83
2023/08/28 12:43:46;;;;;;;1.50;1.50;;;;;;;;;;4875261;29;20233;-83
2023/08/28 12:46:13;;;;;;;1.80;1.70;;;;;;;;;;4873831;29;20260;-83
2023/08/28 12:48:43;;;;;;;1.75;1.50;;;;;;;;;;4874015;29;20280;-84
2023/08/28 12:51:10;;;;;;;2.35;1.27;;;;;;;;;;4873927;29;20257;-82
2023/08/28 12:53:37;;;;;;;7.30;1.23;;;;;;;;;;4874165;29;20237;-82
2023/08/28 12:56:04;;;;;;;1.83;1.48;;;;;;;;;;4874093;29;20665;-82
2023/08/28 12:58:33;;;;;;;1.30;1.30;;;;;;;;;;4874606;29;20745;-83
2023/08/28 13:01:01;;;;;;;1.58;1.30;;;;;;;;;;4873979;29;20671;-83
2023/08/28 13:03:29;;;;;;;1.30;1.30;;;;;;;;;;4876980;29;20221;-83
2023/08/28 13:05:57;;;;;;;1.33;1.33;;;;;;;;;;4868511;29;20458;-82
2023/08/28 13:08:24;;;;;;;1.35;1.27;;;;;;;;;;4863473;29;20237;-84
2023/08/28 13:10:51;;;;;;;3.63;1.40;;;;;;;;;;4864786;29;20237;-82
2023/08/28 13:13:19;;;;;;;1.52;1.42;;;;;;;;;;4860798;29;20246;-84
2023/08/28 13:15:47;;;;;;;1.05;1.05;;;;;;;;;;4859982;29;20257;-82
2023/08/28 13:18:15;;;;;;;1.00;1.00;;;;;;;;;;4864277;29;20222;-82
2023/08/28 13:20:42;;;;;;;1.73;1.10;;;;;;;;;;4864195;29;20338;-83
2023/08/28 13:23:10;;;;;;;1.92;1.25;;;;;;;;;;4864174;29;20281;-83
2023/08/28 13:25:38;;;;;;;1.20;1.20;;;;;;;;;;4870218;29;20722;-82
2023/08/28 13:28:05;;;;;;;1.38;1.27;;;;;;;;;;4865798;29;20325;-83
2023/08/28 13:30:33;;;;;;;2.63;1.48;;;;;;;;;;4872755;29;20249;-82
2023/08/28 13:33:04;;;;;;;1.30;1.30;;;;;;;;;;4878407;29;20237;-82
2023/08/28 13:35:32;;;;;;;2.13;1.40;;;;;;;;;;4891800;29;20336;-82
2023/08/28 13:37:59;;;;;;;1.15;1.15;;;;;;;;;;4891948;29;20671;-82
2023/08/28 13:40:26;;;;;;;1.23;1.23;;;;;;;;;;4892215;29;20239;-82
2023/08/28 13:42:54;;;;;;;1.20;1.20;;;;;;;;;;4892293;29;20232;-83
2023/08/28 13:45:22;;;;;;;1.10;1.10;;;;;;;;;;4891658;29;20571;-83
2023/08/28 13:47:50;;;;;;;2.53;1.40;;;;;;;;;;4898101;29;20233;-83
2023/08/28 13:50:17;;;;;;;1.52;1.25;;;;;;;;;;4898352;29;20236;-82
2023/08/28 13:52:47;;;;;;;1.33;1.30;;;;;;;;;;4898456;29;20713;-83
2023/08/28 13:55:13;;;;;;;1.48;1.48;;;;;;;;;;4897628;29;20236;-83
2023/08/28 13:57:44;;;;;;;2.15;0.95;;;;;;;;;;4900600;29;20634;-82
2023/08/28 14:00:14;;;;;;;3.75;1.30;;;;;;;;;;4898957;29;20236;-82
2023/08/28 14:02:41;;;;;;;9.05;1.50;;;;;;;;;;4898121;29;20236;-82
2023/08/28 14:05:11;;;;;;;2.42;1.40;;;;;;;;;;4898491;29;20244;-82
2023/08/28 14:07:38;;;;;;;1.40;1.40;;;;;;;;;;4898267;29;20659;-82
2023/08/28 14:10:08;;;;;;;1.70;1.60;;;;;;;;;;4898616;29;20674;-83
2023/08/28 14:12:35;;;;;;;1.40;1.40;;;;;;;;;;4898519;29;20257;-82
2023/08/28 14:15:04;;;;;;;1.45;1.35;;;;;;;;;;4898041;29;20236;-82
2023/08/28 14:17:33;;;;;;;1.25;1.25;;;;;;;;;;4897047;29;20244;-83
2023/08/28 14:20:03;;;;;;;1.27;1.20;;;;;;;;;;4899105;29;20480;-81
2023/08/28 14:22:30;;;;;;;1.40;1.40;;;;;;;;;;4898274;29;20724;-82
2023/08/28 14:24:57;;;;;;;2.15;2.00;;;;;;;;;;4899053;29;20309;-83
2023/08/28 14:27:26;;;;;;;1.15;1.15;;;;;;;;;;4887138;29;20317;-83
2023/08/28 14:29:53;;;;;;;1.55;1.40;;;;;;;;;;4879259;29;20240;-82
2023/08/28 14:32:21;;;;;;;1.00;1.00;;;;;;;;;;4896735;29;20229;-82
2023/08/28 14:34:49;;;;;;;1.85;1.40;;;;;;;;;;4883579;29;20518;-82
2023/08/28 14:37:15;;;;;;;2.70;1.38;;;;;;;;;;4878445;29;20245;-82
2023/08/28 14:39:42;;;;;;;1.38;1.38;;;;;;;;;;4879937;29;20320;-81
2023/08/28 14:42:09;;;;;;;1.45;1.45;;;;;;;;;;4879397;29;20225;-82
2023/08/28 14:44:37;;;;;;;1.92;1.83;;;;;;;;;;4879855;29;20622;-82
2023/08/28 14:47:05;;;;;;;2.35;1.15;;;;;;;;;;4876820;29;20245;-82
2023/08/28 14:49:32;;;;;;;2.15;1.55;;;;;;;;;;4879942;29;20268;-81